sensor_id;sensor_type;location;lat;lon;timestamp;P1;durP1;ratioP1;P2;durP2;ratioP2
42724;SDS011;28369;44.046;23.014;2023-02-26T00:01:59;142.43;;;56.75;;
42724;SDS011;28369;44.046;23.014;2023-02-26T00:04:26;148.60;;;59.95;;
42724;SDS011;28369;44.046;23.014;2023-02-26T00:06:52;139.07;;;60.47;;
42724;SDS011;28369;44.046;23.014;2023-02-26T00:09:17;164.05;;;64.13;;
42724;SDS011;28369;44.046;23.014;2023-02-26T00:11:44;194.27;;;65.30;;
42724;SDS011;28369;44.046;23.014;2023-02-26T00:14:11;167.98;;;63.15;;
42724;SDS011;28369;44.046;23.014;2023-02-26T00:16:38;171.00;;;67.32;;
42724;SDS011;28369;44.046;23.014;2023-02-26T00:19:06;169.32;;;63.60;;
42724;SDS011;28369;44.046;23.014;2023-02-26T00:21:33;165.27;;;63.97;;
42724;SDS011;28369;44.046;23.014;2023-02-26T00:23:59;177.57;;;68.70;;
42724;SDS011;28369;44.046;23.014;2023-02-26T00:26:26;150.02;;;60.83;;
42724;SDS011;28369;44.046;23.014;2023-02-26T00:28:53;158.85;;;63.92;;
42724;SDS011;28369;44.046;23.014;2023-02-26T00:31:19;149.15;;;59.45;;
42724;SDS011;28369;44.046;23.014;2023-02-26T00:33:48;153.02;;;64.30;;
42724;SDS011;28369;44.046;23.014;2023-02-26T00:38:54;160.35;;;65.35;;
42724;SDS011;28369;44.046;23.014;2023-02-26T00:41:29;154.95;;;65.10;;
42724;SDS011;28369;44.046;23.014;2023-02-26T00:43:54;161.00;;;67.38;;
42724;SDS011;28369;44.046;23.014;2023-02-26T00:46:55;184.02;;;71.57;;
42724;SDS011;28369;44.046;23.014;2023-02-26T00:51:57;162.25;;;63.97;;
42724;SDS011;28369;44.046;23.014;2023-02-26T00:54:29;168.75;;;63.72;;
42724;SDS011;28369;44.046;23.014;2023-02-26T00:56:55;165.90;;;61.38;;
42724;SDS011;28369;44.046;23.014;2023-02-26T00:59:22;140.55;;;54.35;;
42724;SDS011;28369;44.046;23.014;2023-02-26T01:01:48;139.60;;;54.88;;
42724;SDS011;28369;44.046;23.014;2023-02-26T01:04:15;143.95;;;56.85;;
42724;SDS011;28369;44.046;23.014;2023-02-26T01:06:43;140.10;;;53.22;;
42724;SDS011;28369;44.046;23.014;2023-02-26T01:11:41;136.20;;;55.17;;
42724;SDS011;28369;44.046;23.014;2023-02-26T01:14:07;130.23;;;53.05;;
42724;SDS011;28369;44.046;23.014;2023-02-26T01:16:34;126.82;;;50.85;;
42724;SDS011;28369;44.046;23.014;2023-02-26T01:25:08;107.22;;;46.88;;
42724;SDS011;28369;44.046;23.014;2023-02-26T01:27:35;125.40;;;48.78;;
42724;SDS011;28369;44.046;23.014;2023-02-26T01:30:02;135.15;;;52.03;;
42724;SDS011;28369;44.046;23.014;2023-02-26T01:47:15;139.48;;;52.10;;
42724;SDS011;28369;44.046;23.014;2023-02-26T01:50:00;138.45;;;52.00;;
42724;SDS011;28369;44.046;23.014;2023-02-26T01:55:13;114.10;;;48.00;;
42724;SDS011;28369;44.046;23.014;2023-02-26T01:57:44;122.57;;;47.47;;
42724;SDS011;28369;44.046;23.014;2023-02-26T02:00:11;122.07;;;47.53;;
42724;SDS011;28369;44.046;23.014;2023-02-26T02:02:36;139.40;;;51.42;;
42724;SDS011;28369;44.046;23.014;2023-02-26T02:05:20;133.88;;;52.88;;
42724;SDS011;28369;44.046;23.014;2023-02-26T02:08:02;145.43;;;52.85;;
42724;SDS011;28369;44.046;23.014;2023-02-26T02:10:28;141.00;;;52.88;;
42724;SDS011;28369;44.046;23.014;2023-02-26T02:13:02;151.57;;;55.30;;
42724;SDS011;28369;44.046;23.014;2023-02-26T02:15:45;141.57;;;54.22;;
42724;SDS011;28369;44.046;23.014;2023-02-26T02:31:45;168.00;;;56.60;;
42724;SDS011;28369;44.046;23.014;2023-02-26T02:42:43;152.40;;;56.25;;
42724;SDS011;28369;44.046;23.014;2023-02-26T02:45:49;149.32;;;56.65;;
42724;SDS011;28369;44.046;23.014;2023-02-26T02:51:51;144.97;;;55.90;;
42724;SDS011;28369;44.046;23.014;2023-02-26T02:57:43;128.87;;;50.00;;
42724;SDS011;28369;44.046;23.014;2023-02-26T03:00:14;141.10;;;53.33;;
42724;SDS011;28369;44.046;23.014;2023-02-26T03:05:07;124.40;;;50.40;;
42724;SDS011;28369;44.046;23.014;2023-02-26T03:07:35;113.05;;;47.72;;
42724;SDS011;28369;44.046;23.014;2023-02-26T03:10:07;111.22;;;47.22;;
42724;SDS011;28369;44.046;23.014;2023-02-26T03:12:33;115.95;;;47.20;;
42724;SDS011;28369;44.046;23.014;2023-02-26T03:14:59;109.22;;;47.92;;
42724;SDS011;28369;44.046;23.014;2023-02-26T03:25:50;129.27;;;48.83;;
42724;SDS011;28369;44.046;23.014;2023-02-26T03:28:23;123.75;;;50.53;;
42724;SDS011;28369;44.046;23.014;2023-02-26T03:31:16;128.10;;;49.53;;
42724;SDS011;28369;44.046;23.014;2023-02-26T03:41:26;156.75;;;56.50;;
42724;SDS011;28369;44.046;23.014;2023-02-26T03:44:12;144.48;;;56.00;;
42724;SDS011;28369;44.046;23.014;2023-02-26T03:47:22;152.05;;;57.05;;
42724;SDS011;28369;44.046;23.014;2023-02-26T03:49:58;152.30;;;57.35;;
42724;SDS011;28369;44.046;23.014;2023-02-26T03:52:26;142.52;;;55.83;;
42724;SDS011;28369;44.046;23.014;2023-02-26T03:54:57;140.70;;;55.45;;
42724;SDS011;28369;44.046;23.014;2023-02-26T03:57:26;144.27;;;54.67;;
42724;SDS011;28369;44.046;23.014;2023-02-26T03:59:51;151.40;;;58.38;;
42724;SDS011;28369;44.046;23.014;2023-02-26T04:02:24;139.15;;;52.22;;
42724;SDS011;28369;44.046;23.014;2023-02-26T04:05:04;132.00;;;53.80;;
42724;SDS011;28369;44.046;23.014;2023-02-26T04:07:33;124.65;;;51.42;;
42724;SDS011;28369;44.046;23.014;2023-02-26T04:09:58;140.18;;;53.35;;
42724;SDS011;28369;44.046;23.014;2023-02-26T04:12:24;120.53;;;48.65;;
42724;SDS011;28369;44.046;23.014;2023-02-26T04:14:51;107.43;;;44.13;;
42724;SDS011;28369;44.046;23.014;2023-02-26T04:17:17;110.65;;;44.88;;
42724;SDS011;28369;44.046;23.014;2023-02-26T04:19:42;98.53;;;42.38;;
42724;SDS011;28369;44.046;23.014;2023-02-26T04:22:08;87.85;;;39.45;;
42724;SDS011;28369;44.046;23.014;2023-02-26T04:24:34;88.78;;;38.70;;
42724;SDS011;28369;44.046;23.014;2023-02-26T04:27:00;82.80;;;39.03;;
42724;SDS011;28369;44.046;23.014;2023-02-26T04:29:25;82.07;;;37.72;;
42724;SDS011;28369;44.046;23.014;2023-02-26T04:31:51;76.65;;;36.83;;
42724;SDS011;28369;44.046;23.014;2023-02-26T04:34:17;89.55;;;39.15;;
42724;SDS011;28369;44.046;23.014;2023-02-26T04:36:43;90.80;;;38.80;;
42724;SDS011;28369;44.046;23.014;2023-02-26T04:39:08;94.28;;;42.92;;
42724;SDS011;28369;44.046;23.014;2023-02-26T04:41:35;89.20;;;41.28;;
42724;SDS011;28369;44.046;23.014;2023-02-26T04:44:00;99.60;;;45.40;;
42724;SDS011;28369;44.046;23.014;2023-02-26T04:46:26;109.03;;;49.83;;
42724;SDS011;28369;44.046;23.014;2023-02-26T04:48:51;111.47;;;51.15;;
42724;SDS011;28369;44.046;23.014;2023-02-26T04:51:17;110.38;;;48.72;;
42724;SDS011;28369;44.046;23.014;2023-02-26T04:53:43;106.57;;;46.17;;
42724;SDS011;28369;44.046;23.014;2023-02-26T04:56:08;103.10;;;47.38;;
42724;SDS011;28369;44.046;23.014;2023-02-26T04:58:34;100.03;;;47.33;;
42724;SDS011;28369;44.046;23.014;2023-02-26T05:00:59;109.07;;;49.67;;
42724;SDS011;28369;44.046;23.014;2023-02-26T05:03:25;109.15;;;46.85;;
42724;SDS011;28369;44.046;23.014;2023-02-26T05:05:50;111.13;;;48.95;;
42724;SDS011;28369;44.046;23.014;2023-02-26T05:08:16;101.40;;;46.60;;
42724;SDS011;28369;44.046;23.014;2023-02-26T05:10:41;104.28;;;48.03;;
42724;SDS011;28369;44.046;23.014;2023-02-26T05:13:06;112.40;;;47.67;;
42724;SDS011;28369;44.046;23.014;2023-02-26T05:15:32;106.80;;;50.55;;
42724;SDS011;28369;44.046;23.014;2023-02-26T05:17:57;101.03;;;45.53;;
42724;SDS011;28369;44.046;23.014;2023-02-26T05:20:23;103.63;;;45.45;;
42724;SDS011;28369;44.046;23.014;2023-02-26T05:22:49;105.30;;;47.13;;
42724;SDS011;28369;44.046;23.014;2023-02-26T05:25:14;115.18;;;48.83;;
42724;SDS011;28369;44.046;23.014;2023-02-26T05:27:41;103.25;;;44.88;;
42724;SDS011;28369;44.046;23.014;2023-02-26T05:30:07;100.68;;;43.80;;
42724;SDS011;28369;44.046;23.014;2023-02-26T05:32:36;103.70;;;44.75;;
42724;SDS011;28369;44.046;23.014;2023-02-26T05:35:02;97.68;;;44.53;;
42724;SDS011;28369;44.046;23.014;2023-02-26T05:37:27;106.95;;;47.25;;
42724;SDS011;28369;44.046;23.014;2023-02-26T05:39:53;105.43;;;44.53;;
42724;SDS011;28369;44.046;23.014;2023-02-26T05:42:18;92.57;;;42.03;;
42724;SDS011;28369;44.046;23.014;2023-02-26T05:44:44;96.72;;;42.55;;
42724;SDS011;28369;44.046;23.014;2023-02-26T05:47:09;94.93;;;43.45;;
42724;SDS011;28369;44.046;23.014;2023-02-26T05:49:35;88.95;;;41.33;;
42724;SDS011;28369;44.046;23.014;2023-02-26T05:52:01;115.38;;;56.53;;
42724;SDS011;28369;44.046;23.014;2023-02-26T05:54:27;96.15;;;43.58;;
42724;SDS011;28369;44.046;23.014;2023-02-26T05:56:52;99.95;;;42.25;;
42724;SDS011;28369;44.046;23.014;2023-02-26T05:59:18;99.20;;;42.92;;
42724;SDS011;28369;44.046;23.014;2023-02-26T06:01:43;101.60;;;43.00;;
42724;SDS011;28369;44.046;23.014;2023-02-26T06:04:09;111.28;;;50.95;;
42724;SDS011;28369;44.046;23.014;2023-02-26T06:06:34;88.90;;;37.92;;
42724;SDS011;28369;44.046;23.014;2023-02-26T06:09:00;77.80;;;37.60;;
42724;SDS011;28369;44.046;23.014;2023-02-26T06:11:27;73.65;;;32.15;;
42724;SDS011;28369;44.046;23.014;2023-02-26T06:13:53;64.38;;;29.92;;
42724;SDS011;28369;44.046;23.014;2023-02-26T06:16:19;53.72;;;28.42;;
42724;SDS011;28369;44.046;23.014;2023-02-26T06:18:45;65.38;;;30.08;;
42724;SDS011;28369;44.046;23.014;2023-02-26T06:21:10;68.82;;;30.05;;
42724;SDS011;28369;44.046;23.014;2023-02-26T06:23:36;56.97;;;26.80;;
42724;SDS011;28369;44.046;23.014;2023-02-26T06:26:02;58.08;;;26.98;;
42724;SDS011;28369;44.046;23.014;2023-02-26T06:28:28;51.40;;;25.90;;
42724;SDS011;28369;44.046;23.014;2023-02-26T06:30:54;52.83;;;26.92;;
42724;SDS011;28369;44.046;23.014;2023-02-26T06:33:19;49.55;;;24.70;;
42724;SDS011;28369;44.046;23.014;2023-02-26T06:35:45;47.78;;;25.92;;
42724;SDS011;28369;44.046;23.014;2023-02-26T06:38:12;45.72;;;25.10;;
42724;SDS011;28369;44.046;23.014;2023-02-26T06:40:38;46.63;;;25.67;;
42724;SDS011;28369;44.046;23.014;2023-02-26T06:43:03;51.30;;;29.65;;
42724;SDS011;28369;44.046;23.014;2023-02-26T06:45:29;48.00;;;26.23;;
42724;SDS011;28369;44.046;23.014;2023-02-26T06:47:54;47.03;;;25.83;;
42724;SDS011;28369;44.046;23.014;2023-02-26T06:50:20;43.28;;;26.17;;
42724;SDS011;28369;44.046;23.014;2023-02-26T06:52:45;46.65;;;25.63;;
42724;SDS011;28369;44.046;23.014;2023-02-26T06:55:11;47.83;;;25.42;;
42724;SDS011;28369;44.046;23.014;2023-02-26T06:57:37;44.53;;;24.88;;
42724;SDS011;28369;44.046;23.014;2023-02-26T07:00:03;45.17;;;24.88;;
42724;SDS011;28369;44.046;23.014;2023-02-26T07:02:30;43.33;;;25.63;;
42724;SDS011;28369;44.046;23.014;2023-02-26T07:04:55;41.97;;;25.83;;
42724;SDS011;28369;44.046;23.014;2023-02-26T07:07:21;50.65;;;27.98;;
42724;SDS011;28369;44.046;23.014;2023-02-26T07:09:46;50.65;;;30.08;;
42724;SDS011;28369;44.046;23.014;2023-02-26T07:12:12;49.17;;;30.00;;
42724;SDS011;28369;44.046;23.014;2023-02-26T07:14:38;56.97;;;31.55;;
42724;SDS011;28369;44.046;23.014;2023-02-26T07:17:04;46.53;;;28.67;;
42724;SDS011;28369;44.046;23.014;2023-02-26T07:19:30;47.45;;;27.70;;
42724;SDS011;28369;44.046;23.014;2023-02-26T07:21:55;54.33;;;28.45;;
42724;SDS011;28369;44.046;23.014;2023-02-26T07:24:21;45.40;;;27.38;;
42724;SDS011;28369;44.046;23.014;2023-02-26T07:26:47;48.17;;;27.50;;
42724;SDS011;28369;44.046;23.014;2023-02-26T07:29:12;50.30;;;28.67;;
42724;SDS011;28369;44.046;23.014;2023-02-26T07:31:38;46.08;;;29.33;;
42724;SDS011;28369;44.046;23.014;2023-02-26T07:34:04;47.15;;;29.27;;
42724;SDS011;28369;44.046;23.014;2023-02-26T07:36:29;44.05;;;26.88;;
42724;SDS011;28369;44.046;23.014;2023-02-26T07:38:54;50.22;;;28.35;;
42724;SDS011;28369;44.046;23.014;2023-02-26T07:41:20;47.38;;;29.40;;
42724;SDS011;28369;44.046;23.014;2023-02-26T07:43:45;47.40;;;28.85;;
42724;SDS011;28369;44.046;23.014;2023-02-26T07:46:11;49.67;;;28.40;;
42724;SDS011;28369;44.046;23.014;2023-02-26T07:48:36;63.03;;;38.70;;
42724;SDS011;28369;44.046;23.014;2023-02-26T07:51:02;51.97;;;30.63;;
42724;SDS011;28369;44.046;23.014;2023-02-26T07:53:28;49.05;;;29.35;;
42724;SDS011;28369;44.046;23.014;2023-02-26T07:55:54;60.80;;;31.95;;
42724;SDS011;28369;44.046;23.014;2023-02-26T07:58:19;51.28;;;29.85;;
42724;SDS011;28369;44.046;23.014;2023-02-26T08:00:45;51.55;;;29.92;;
42724;SDS011;28369;44.046;23.014;2023-02-26T08:03:11;48.83;;;28.58;;
42724;SDS011;28369;44.046;23.014;2023-02-26T08:05:36;48.50;;;29.52;;
42724;SDS011;28369;44.046;23.014;2023-02-26T08:08:02;52.53;;;31.98;;
42724;SDS011;28369;44.046;23.014;2023-02-26T08:10:28;53.20;;;31.45;;
42724;SDS011;28369;44.046;23.014;2023-02-26T08:12:54;40.63;;;27.23;;
42724;SDS011;28369;44.046;23.014;2023-02-26T08:15:20;41.40;;;28.15;;
42724;SDS011;28369;44.046;23.014;2023-02-26T08:17:45;49.60;;;29.55;;
42724;SDS011;28369;44.046;23.014;2023-02-26T08:20:11;48.25;;;29.92;;
42724;SDS011;28369;44.046;23.014;2023-02-26T08:22:38;46.63;;;32.08;;
42724;SDS011;28369;44.046;23.014;2023-02-26T08:31:22;47.60;;;29.92;;
42724;SDS011;28369;44.046;23.014;2023-02-26T08:36:45;47.08;;;30.45;;
42724;SDS011;28369;44.046;23.014;2023-02-26T08:39:10;49.40;;;29.90;;
42724;SDS011;28369;44.046;23.014;2023-02-26T08:44:58;50.22;;;30.83;;
42724;SDS011;28369;44.046;23.014;2023-02-26T09:06:34;47.17;;;31.88;;
42724;SDS011;28369;44.046;23.014;2023-02-26T09:09:00;48.03;;;31.55;;
42724;SDS011;28369;44.046;23.014;2023-02-26T09:11:25;51.25;;;31.58;;
42724;SDS011;28369;44.046;23.014;2023-02-26T09:13:51;45.28;;;30.25;;
42724;SDS011;28369;44.046;23.014;2023-02-26T09:16:16;43.17;;;30.50;;
42724;SDS011;28369;44.046;23.014;2023-02-26T09:18:42;43.53;;;31.00;;
42724;SDS011;28369;44.046;23.014;2023-02-26T09:21:07;48.10;;;30.23;;
42724;SDS011;28369;44.046;23.014;2023-02-26T09:23:33;50.63;;;32.92;;
42724;SDS011;28369;44.046;23.014;2023-02-26T09:25:58;48.10;;;30.67;;
42724;SDS011;28369;44.046;23.014;2023-02-26T09:28:24;44.60;;;29.70;;
42724;SDS011;28369;44.046;23.014;2023-02-26T09:30:53;43.47;;;29.95;;
42724;SDS011;28369;44.046;23.014;2023-02-26T09:33:19;48.95;;;30.15;;
42724;SDS011;28369;44.046;23.014;2023-02-26T09:35:49;47.13;;;31.55;;
42724;SDS011;28369;44.046;23.014;2023-02-26T09:41:39;48.50;;;33.10;;
42724;SDS011;28369;44.046;23.014;2023-02-26T09:44:21;49.80;;;32.25;;
42724;SDS011;28369;44.046;23.014;2023-02-26T09:52:22;49.42;;;32.10;;
42724;SDS011;28369;44.046;23.014;2023-02-26T09:55:27;49.15;;;32.53;;
42724;SDS011;28369;44.046;23.014;2023-02-26T10:01:23;51.78;;;33.53;;
42724;SDS011;28369;44.046;23.014;2023-02-26T10:06:35;44.20;;;31.10;;
42724;SDS011;28369;44.046;23.014;2023-02-26T10:12:30;64.22;;;35.78;;
42724;SDS011;28369;44.046;23.014;2023-02-26T10:20:53;47.40;;;30.90;;
42724;SDS011;28369;44.046;23.014;2023-02-26T10:26:18;51.97;;;32.25;;
42724;SDS011;28369;44.046;23.014;2023-02-26T10:29:11;49.58;;;31.05;;
42724;SDS011;28369;44.046;23.014;2023-02-26T10:37:18;54.47;;;35.33;;
42724;SDS011;28369;44.046;23.014;2023-02-26T10:39:52;51.17;;;33.13;;
42724;SDS011;28369;44.046;23.014;2023-02-26T10:42:45;50.45;;;32.15;;
42724;SDS011;28369;44.046;23.014;2023-02-26T10:45:26;51.97;;;34.03;;
42724;SDS011;28369;44.046;23.014;2023-02-26T12:16:44;20.08;;;13.05;;
42724;SDS011;28369;44.046;23.014;2023-02-26T12:28:38;27.20;;;15.10;;
42724;SDS011;28369;44.046;23.014;2023-02-26T12:37:05;16.65;;;10.90;;
42724;SDS011;28369;44.046;23.014;2023-02-26T13:37:52;9.38;;;5.45;;
42724;SDS011;28369;44.046;23.014;2023-02-26T13:59:05;7.18;;;4.80;;
42724;SDS011;28369;44.046;23.014;2023-02-26T15:05:04;5.35;;;3.97;;
42724;SDS011;28369;44.046;23.014;2023-02-26T15:10:58;10.10;;;4.13;;
42724;SDS011;28369;44.046;23.014;2023-02-26T15:23:52;9.30;;;4.15;;
42724;SDS011;28369;44.046;23.014;2023-02-26T15:26:21;8.90;;;4.40;;
42724;SDS011;28369;44.046;23.014;2023-02-26T15:28:47;7.03;;;3.65;;
42724;SDS011;28369;44.046;23.014;2023-02-26T15:31:14;7.55;;;4.45;;
42724;SDS011;28369;44.046;23.014;2023-02-26T15:33:40;6.55;;;4.78;;
42724;SDS011;28369;44.046;23.014;2023-02-26T15:36:07;16.80;;;9.90;;
42724;SDS011;28369;44.046;23.014;2023-02-26T15:38:41;38.67;;;23.02;;
42724;SDS011;28369;44.046;23.014;2023-02-26T15:41:09;14.25;;;9.82;;
42724;SDS011;28369;44.046;23.014;2023-02-26T15:43:36;8.63;;;6.75;;
42724;SDS011;28369;44.046;23.014;2023-02-26T15:46:02;10.07;;;5.03;;
42724;SDS011;28369;44.046;23.014;2023-02-26T15:48:30;6.22;;;5.10;;
42724;SDS011;28369;44.046;23.014;2023-02-26T15:51:03;10.50;;;7.72;;
42724;SDS011;28369;44.046;23.014;2023-02-26T15:53:31;7.63;;;6.28;;
42724;SDS011;28369;44.046;23.014;2023-02-26T15:56:02;13.07;;;8.85;;
42724;SDS011;28369;44.046;23.014;2023-02-26T15:58:43;9.82;;;7.13;;
42724;SDS011;28369;44.046;23.014;2023-02-26T16:02:00;11.95;;;5.60;;
42724;SDS011;28369;44.046;23.014;2023-02-26T16:04:26;10.60;;;6.38;;
42724;SDS011;28369;44.046;23.014;2023-02-26T16:06:53;12.48;;;6.63;;
42724;SDS011;28369;44.046;23.014;2023-02-26T16:09:27;8.52;;;6.70;;
42724;SDS011;28369;44.046;23.014;2023-02-26T16:15:40;10.25;;;7.35;;
42724;SDS011;28369;44.046;23.014;2023-02-26T16:21:34;9.37;;;6.57;;
42724;SDS011;28369;44.046;23.014;2023-02-26T16:27:25;8.68;;;7.00;;
42724;SDS011;28369;44.046;23.014;2023-02-26T16:29:53;8.00;;;6.20;;
42724;SDS011;28369;44.046;23.014;2023-02-26T16:32:24;23.88;;;12.50;;
42724;SDS011;28369;44.046;23.014;2023-02-26T16:34:53;13.95;;;9.32;;
42724;SDS011;28369;44.046;23.014;2023-02-26T16:42:42;11.55;;;8.52;;
42724;SDS011;28369;44.046;23.014;2023-02-26T16:51:23;6.78;;;5.72;;
42724;SDS011;28369;44.046;23.014;2023-02-26T16:54:26;8.98;;;6.10;;
42724;SDS011;28369;44.046;23.014;2023-02-26T16:57:22;9.18;;;6.65;;
42724;SDS011;28369;44.046;23.014;2023-02-26T16:59:56;9.23;;;5.70;;
42724;SDS011;28369;44.046;23.014;2023-02-26T17:02:26;10.35;;;7.57;;
42724;SDS011;28369;44.046;23.014;2023-02-26T17:12:02;6.07;;;5.15;;
42724;SDS011;28369;44.046;23.014;2023-02-26T17:14:36;8.88;;;5.30;;
42724;SDS011;28369;44.046;23.014;2023-02-26T17:17:04;9.85;;;5.57;;
42724;SDS011;28369;44.046;23.014;2023-02-26T17:19:30;8.48;;;5.32;;
42724;SDS011;28369;44.046;23.014;2023-02-26T17:21:56;7.13;;;5.22;;
42724;SDS011;28369;44.046;23.014;2023-02-26T17:24:25;6.97;;;4.63;;
42724;SDS011;28369;44.046;23.014;2023-02-26T17:26:55;8.40;;;5.55;;
42724;SDS011;28369;44.046;23.014;2023-02-26T17:29:23;8.00;;;5.97;;
42724;SDS011;28369;44.046;23.014;2023-02-26T17:32:28;9.10;;;5.78;;
42724;SDS011;28369;44.046;23.014;2023-02-26T17:34:55;8.20;;;6.30;;
42724;SDS011;28369;44.046;23.014;2023-02-26T17:37:21;10.88;;;6.55;;
42724;SDS011;28369;44.046;23.014;2023-02-26T17:39:49;6.93;;;6.22;;
42724;SDS011;28369;44.046;23.014;2023-02-26T17:42:16;10.13;;;7.65;;
42724;SDS011;28369;44.046;23.014;2023-02-26T17:44:45;8.95;;;7.07;;
42724;SDS011;28369;44.046;23.014;2023-02-26T17:47:15;9.23;;;7.57;;
42724;SDS011;28369;44.046;23.014;2023-02-26T17:49:45;9.45;;;6.75;;
42724;SDS011;28369;44.046;23.014;2023-02-26T17:52:11;9.75;;;7.82;;
42724;SDS011;28369;44.046;23.014;2023-02-26T17:54:36;18.17;;;10.95;;
42724;SDS011;28369;44.046;23.014;2023-02-26T17:57:02;14.77;;;9.13;;
42724;SDS011;28369;44.046;23.014;2023-02-26T17:59:27;15.75;;;10.95;;
42724;SDS011;28369;44.046;23.014;2023-02-26T18:01:53;19.75;;;13.20;;
42724;SDS011;28369;44.046;23.014;2023-02-26T18:04:19;10.07;;;8.98;;
42724;SDS011;28369;44.046;23.014;2023-02-26T18:06:46;13.77;;;8.60;;
42724;SDS011;28369;44.046;23.014;2023-02-26T18:09:12;11.07;;;8.35;;
42724;SDS011;28369;44.046;23.014;2023-02-26T18:11:38;10.68;;;9.43;;
42724;SDS011;28369;44.046;23.014;2023-02-26T18:14:05;24.60;;;15.65;;
42724;SDS011;28369;44.046;23.014;2023-02-26T18:16:34;16.80;;;10.40;;
42724;SDS011;28369;44.046;23.014;2023-02-26T18:19:02;15.82;;;12.00;;
42724;SDS011;28369;44.046;23.014;2023-02-26T18:21:29;15.40;;;10.27;;
42724;SDS011;28369;44.046;23.014;2023-02-26T18:23:55;14.45;;;9.02;;
42724;SDS011;28369;44.046;23.014;2023-02-26T18:26:21;11.05;;;9.00;;
42724;SDS011;28369;44.046;23.014;2023-02-26T18:28:51;14.45;;;10.32;;
42724;SDS011;28369;44.046;23.014;2023-02-26T18:31:17;9.88;;;7.85;;
42724;SDS011;28369;44.046;23.014;2023-02-26T18:33:42;13.25;;;9.55;;
42724;SDS011;28369;44.046;23.014;2023-02-26T18:36:27;10.60;;;9.50;;
42724;SDS011;28369;44.046;23.014;2023-02-26T18:38:59;12.25;;;9.35;;
42724;SDS011;28369;44.046;23.014;2023-02-26T18:41:29;11.43;;;8.67;;
42724;SDS011;28369;44.046;23.014;2023-02-26T18:43:56;11.48;;;9.15;;
42724;SDS011;28369;44.046;23.014;2023-02-26T18:46:22;12.00;;;9.73;;
42724;SDS011;28369;44.046;23.014;2023-02-26T18:48:48;13.68;;;9.73;;
42724;SDS011;28369;44.046;23.014;2023-02-26T18:51:14;12.30;;;9.90;;
42724;SDS011;28369;44.046;23.014;2023-02-26T18:53:39;14.52;;;10.32;;
42724;SDS011;28369;44.046;23.014;2023-02-26T18:56:05;15.55;;;11.75;;
42724;SDS011;28369;44.046;23.014;2023-02-26T18:58:36;15.27;;;11.02;;
42724;SDS011;28369;44.046;23.014;2023-02-26T19:04:24;20.30;;;11.68;;
42724;SDS011;28369;44.046;23.014;2023-02-26T19:10:13;32.22;;;18.55;;
42724;SDS011;28369;44.046;23.014;2023-02-26T19:12:39;16.65;;;12.05;;
42724;SDS011;28369;44.046;23.014;2023-02-26T19:15:05;15.73;;;12.13;;
42724;SDS011;28369;44.046;23.014;2023-02-26T19:17:31;16.83;;;11.45;;
42724;SDS011;28369;44.046;23.014;2023-02-26T19:23:21;18.53;;;11.53;;
42724;SDS011;28369;44.046;23.014;2023-02-26T19:29:17;30.52;;;21.55;;
42724;SDS011;28369;44.046;23.014;2023-02-26T19:31:43;32.42;;;19.83;;
42724;SDS011;28369;44.046;23.014;2023-02-26T19:34:09;24.35;;;16.83;;
42724;SDS011;28369;44.046;23.014;2023-02-26T19:36:35;53.35;;;34.90;;
42724;SDS011;28369;44.046;23.014;2023-02-26T19:39:02;27.38;;;20.45;;
42724;SDS011;28369;44.046;23.014;2023-02-26T19:41:29;28.75;;;20.27;;
42724;SDS011;28369;44.046;23.014;2023-02-26T19:47:25;21.55;;;15.95;;
42724;SDS011;28369;44.046;23.014;2023-02-26T19:49:51;17.05;;;13.25;;
42724;SDS011;28369;44.046;23.014;2023-02-26T19:52:16;19.17;;;13.57;;
42724;SDS011;28369;44.046;23.014;2023-02-26T19:54:42;18.05;;;11.38;;
42724;SDS011;28369;44.046;23.014;2023-02-26T19:57:07;18.00;;;12.43;;
42724;SDS011;28369;44.046;23.014;2023-02-26T19:59:33;19.60;;;12.80;;
42724;SDS011;28369;44.046;23.014;2023-02-26T20:01:58;16.60;;;12.18;;
42724;SDS011;28369;44.046;23.014;2023-02-26T20:04:24;24.98;;;19.98;;
42724;SDS011;28369;44.046;23.014;2023-02-26T20:06:49;15.52;;;12.27;;
42724;SDS011;28369;44.046;23.014;2023-02-26T20:09:15;15.65;;;12.35;;
42724;SDS011;28369;44.046;23.014;2023-02-26T20:11:42;17.48;;;12.95;;
42724;SDS011;28369;44.046;23.014;2023-02-26T20:14:08;17.15;;;12.27;;
42724;SDS011;28369;44.046;23.014;2023-02-26T20:16:33;18.05;;;13.13;;
42724;SDS011;28369;44.046;23.014;2023-02-26T20:18:59;13.65;;;11.48;;
42724;SDS011;28369;44.046;23.014;2023-02-26T20:21:25;14.43;;;11.32;;
42724;SDS011;28369;44.046;23.014;2023-02-26T20:23:51;16.27;;;10.88;;
42724;SDS011;28369;44.046;23.014;2023-02-26T20:26:16;16.33;;;11.95;;
42724;SDS011;28369;44.046;23.014;2023-02-26T20:28:42;13.13;;;10.95;;
42724;SDS011;28369;44.046;23.014;2023-02-26T20:31:08;15.60;;;11.63;;
42724;SDS011;28369;44.046;23.014;2023-02-26T20:33:34;15.93;;;10.85;;
42724;SDS011;28369;44.046;23.014;2023-02-26T20:36:03;14.38;;;11.13;;
42724;SDS011;28369;44.046;23.014;2023-02-26T20:38:29;14.48;;;10.07;;
42724;SDS011;28369;44.046;23.014;2023-02-26T20:40:55;14.00;;;10.02;;
42724;SDS011;28369;44.046;23.014;2023-02-26T20:43:21;17.33;;;11.48;;
42724;SDS011;28369;44.046;23.014;2023-02-26T20:45:48;15.13;;;10.77;;
42724;SDS011;28369;44.046;23.014;2023-02-26T20:48:15;13.23;;;10.25;;
42724;SDS011;28369;44.046;23.014;2023-02-26T20:50:41;13.98;;;10.88;;
42724;SDS011;28369;44.046;23.014;2023-02-26T20:53:06;15.82;;;11.13;;
42724;SDS011;28369;44.046;23.014;2023-02-26T20:55:32;14.15;;;11.32;;
42724;SDS011;28369;44.046;23.014;2023-02-26T20:57:58;14.82;;;11.40;;
42724;SDS011;28369;44.046;23.014;2023-02-26T21:00:23;14.27;;;11.13;;
42724;SDS011;28369;44.046;23.014;2023-02-26T21:02:49;14.27;;;10.68;;
42724;SDS011;28369;44.046;23.014;2023-02-26T21:05:15;13.60;;;10.77;;
42724;SDS011;28369;44.046;23.014;2023-02-26T21:07:41;15.52;;;10.70;;
42724;SDS011;28369;44.046;23.014;2023-02-26T21:10:08;16.60;;;11.38;;
42724;SDS011;28369;44.046;23.014;2023-02-26T21:12:35;15.45;;;11.20;;
42724;SDS011;28369;44.046;23.014;2023-02-26T21:15:01;15.00;;;11.13;;
42724;SDS011;28369;44.046;23.014;2023-02-26T21:17:27;14.18;;;10.68;;
42724;SDS011;28369;44.046;23.014;2023-02-26T21:19:54;16.45;;;11.20;;
42724;SDS011;28369;44.046;23.014;2023-02-26T21:22:20;15.48;;;11.18;;
42724;SDS011;28369;44.046;23.014;2023-02-26T21:24:45;14.30;;;10.88;;
42724;SDS011;28369;44.046;23.014;2023-02-26T21:27:11;16.10;;;11.50;;
42724;SDS011;28369;44.046;23.014;2023-02-26T21:29:37;13.35;;;9.98;;
42724;SDS011;28369;44.046;23.014;2023-02-26T21:32:03;13.68;;;10.15;;
42724;SDS011;28369;44.046;23.014;2023-02-26T21:34:29;14.68;;;10.80;;
42724;SDS011;28369;44.046;23.014;2023-02-26T21:37:07;18.42;;;10.43;;
42724;SDS011;28369;44.046;23.014;2023-02-26T21:39:35;17.30;;;11.00;;
42724;SDS011;28369;44.046;23.014;2023-02-26T21:42:03;15.27;;;12.02;;
42724;SDS011;28369;44.046;23.014;2023-02-26T21:44:30;15.30;;;11.13;;